createdAt,value
2019-04-21T00:00:55.447Z,0.00
2019-04-21T00:01:52.168Z,0.00
2019-04-21T00:02:50.908Z,0.00
2019-04-21T00:03:53.912Z,0.00
2019-04-21T00:05:06.098Z,0.00
2019-04-21T00:06:09.140Z,0.00
2019-04-21T00:07:11.202Z,0.00
2019-04-21T00:08:16.600Z,0.00
2019-04-21T00:09:11.439Z,0.00
2019-04-21T00:10:13.600Z,0.00
2019-04-21T00:11:09.426Z,0.00
2019-04-21T00:12:11.966Z,0.00
2019-04-21T00:13:02.685Z,0.00
2019-04-21T00:14:01.005Z,0.00
2019-04-21T00:15:01.960Z,0.00
2019-04-21T00:15:57.120Z,0.00
2019-04-21T00:16:57.481Z,0.00
2019-04-21T00:17:54.157Z,0.00
2019-04-21T00:18:58.067Z,0.00
2019-04-21T00:19:49.678Z,0.00
2019-04-21T00:20:52.709Z,0.00
2019-04-21T00:21:55.333Z,0.00
2019-04-21T00:23:02.799Z,0.00
2019-04-21T00:24:05.872Z,0.00
2019-04-21T00:25:08.958Z,0.00
2019-04-21T00:26:01.971Z,0.00
2019-04-21T00:27:05.625Z,0.00
2019-04-21T00:28:09.612Z,0.00
2019-04-21T00:29:14.085Z,0.00
2019-04-21T00:30:13.341Z,0.00
2019-04-21T00:31:06.571Z,0.00
2019-04-21T00:32:01.773Z,0.00
2019-04-21T00:32:56.423Z,0.00
2019-04-21T00:33:50.174Z,0.00
2019-04-21T00:34:56.592Z,0.00
2019-04-21T00:35:54.959Z,0.00
2019-04-21T00:37:00.105Z,0.00
2019-04-21T00:38:09.675Z,0.00
2019-04-21T00:39:23.207Z,0.00
2019-04-21T00:40:10.384Z,0.00
2019-04-21T00:41:13.437Z,0.00
2019-04-21T00:43:06.438Z,0.00
2019-04-21T00:44:00.756Z,0.00
2019-04-21T00:45:03.515Z,0.00
2019-04-21T00:45:59.977Z,0.00
2019-04-21T00:47:03.075Z,0.00
2019-04-21T00:48:14.657Z,0.00
2019-04-21T00:49:05.938Z,0.00
2019-04-21T00:50:25.603Z,0.00
2019-04-21T00:51:33.245Z,0.00
2019-04-21T00:52:24.671Z,0.00
2019-04-21T00:53:33.827Z,0.00
2019-04-21T00:54:21.144Z,0.00
2019-04-21T00:55:23.429Z,0.00
2019-04-21T00:56:16.716Z,0.00
2019-04-21T00:57:14.502Z,0.00
2019-04-21T00:58:10.683Z,0.00
2019-04-21T00:59:18.253Z,0.00
2019-04-21T01:00:11.650Z,0.00
2019-04-21T01:01:07.439Z,0.00
2019-04-21T01:03:12.894Z,0.00
2019-04-21T01:04:11.312Z,0.00
2019-04-21T01:05:11.121Z,0.00
2019-04-21T01:06:14.302Z,0.00
2019-04-21T01:07:10.894Z,0.00
2019-04-21T01:08:09.428Z,0.00
2019-04-21T01:09:07.658Z,0.00
2019-04-21T01:10:01.410Z,0.00
2019-04-21T01:11:11.723Z,0.00
2019-04-21T01:12:07.830Z,0.00
2019-04-21T01:13:14.038Z,0.00
2019-04-21T01:14:13.176Z,0.00
2019-04-21T01:15:16.402Z,0.00
2019-04-21T01:16:10.164Z,0.00
2019-04-21T01:17:17.074Z,0.00
2019-04-21T01:18:12.952Z,0.00
2019-04-21T01:19:08.901Z,0.00
2019-04-21T01:20:05.523Z,0.00
2019-04-21T01:20:47.229Z,0.00
2019-04-21T01:21:47.156Z,0.00
2019-04-21T01:22:47.124Z,0.00
2019-04-21T01:23:48.533Z,0.00
2019-04-21T01:24:56.999Z,0.00
2019-04-21T01:26:03.192Z,0.00
2019-04-21T01:26:58.068Z,0.00
2019-04-21T01:28:04.971Z,0.00
2019-04-21T01:29:10.428Z,0.00
2019-04-21T01:30:14.290Z,0.00
2019-04-21T01:31:03.446Z,0.00
2019-04-21T01:32:10.452Z,0.00
2019-04-21T01:33:07.650Z,0.00
2019-04-21T01:34:13.396Z,0.00
2019-04-21T01:35:08.407Z,0.00
2019-04-21T01:36:03.909Z,0.00
2019-04-21T01:37:05.914Z,0.00
2019-04-21T01:38:06.897Z,0.00
2019-04-21T01:39:13.111Z,0.00
2019-04-21T01:40:08.445Z,0.00
2019-04-21T01:41:12.970Z,0.00
2019-04-21T01:42:11.259Z,0.00
2019-04-21T01:43:11.890Z,0.00
2019-04-21T01:44:07.989Z,0.00
2019-04-21T01:45:07.673Z,0.00
2019-04-21T01:46:06.686Z,0.00
2019-04-21T01:47:04.864Z,0.00
2019-04-21T01:48:05.146Z,0.00
2019-04-21T01:49:01.526Z,0.00
2019-04-21T01:49:56.782Z,0.00
2019-04-21T01:51:01.564Z,0.00
2019-04-21T01:52:17.878Z,0.00
2019-04-21T01:53:11.131Z,0.00
2019-04-21T01:54:12.475Z,0.00
2019-04-21T01:55:09.071Z,0.00
2019-04-21T01:56:08.256Z,0.00
2019-04-21T01:57:02.133Z,0.00
2019-04-21T01:58:03.310Z,0.00
2019-04-21T01:58:54.019Z,0.00
2019-04-21T01:59:58.870Z,0.00
2019-04-21T02:01:03.547Z,0.00
2019-04-21T02:02:06.203Z,0.00
2019-04-21T02:03:09.888Z,0.00
2019-04-21T02:04:02.730Z,0.00
2019-04-21T02:05:13.420Z,0.00
2019-04-21T02:06:15.609Z,0.00
2019-04-21T02:07:13.026Z,0.00
2019-04-21T02:08:05.509Z,0.00
2019-04-21T02:09:03.372Z,0.00
2019-04-21T02:10:11.212Z,0.00
2019-04-21T02:11:11.178Z,0.00
2019-04-21T02:12:08.754Z,0.00
2019-04-21T02:13:03.639Z,0.00
2019-04-21T02:14:26.307Z,0.00
2019-04-21T02:15:11.096Z,0.00
2019-04-21T02:16:06.772Z,0.00
2019-04-21T02:17:10.339Z,0.00
2019-04-21T02:18:09.167Z,0.00
2019-04-21T02:19:04.436Z,0.00
2019-04-21T02:20:00.088Z,0.00
2019-04-21T02:20:52.882Z,0.00
2019-04-21T02:22:01.907Z,0.00
2019-04-21T02:23:24.801Z,0.00
2019-04-21T02:24:13.624Z,0.00
2019-04-21T02:25:11.302Z,0.00
2019-04-21T02:26:09.836Z,0.00
2019-04-21T02:27:07.544Z,0.00
2019-04-21T02:28:13.401Z,0.00
2019-04-21T02:29:08.567Z,0.00
2019-04-21T02:30:14.250Z,0.00
2019-04-21T02:32:14.411Z,0.00
2019-04-21T02:33:19.493Z,0.00
2019-04-21T02:35:20.821Z,0.00
2019-04-21T02:38:20.542Z,0.00
2019-04-21T02:39:34.660Z,0.00
2019-04-21T02:40:17.350Z,0.00
2019-04-21T02:41:13.155Z,0.00
2019-04-21T02:42:11.552Z,0.00
2019-04-21T02:43:19.093Z,0.00
2019-04-21T02:44:23.407Z,0.00
2019-04-21T02:45:19.105Z,0.00
2019-04-21T02:47:16.663Z,0.00
2019-04-21T02:49:22.067Z,0.00
2019-04-21T02:50:19.128Z,0.00
2019-04-21T02:51:19.370Z,0.00
2019-04-21T02:52:27.386Z,0.00
2019-04-21T02:53:18.426Z,0.00
2019-04-21T02:56:18.507Z,0.00
2019-04-21T02:58:17.887Z,0.00
2019-04-21T02:59:17.127Z,0.00
2019-04-21T03:00:14.984Z,0.00
2019-04-21T03:01:24.166Z,0.00
2019-04-21T03:02:14.498Z,0.00
2019-04-21T03:03:13.347Z,0.00
2019-04-21T03:05:20.803Z,0.00
2019-04-21T03:08:19.063Z,0.00
2019-04-21T03:09:18.274Z,0.00
2019-04-21T03:10:20.549Z,0.00
2019-04-21T03:12:22.590Z,0.00
2019-04-21T03:13:23.459Z,0.00
2019-04-21T03:14:17.072Z,0.00
2019-04-21T03:15:21.945Z,0.00
2019-04-21T03:17:17.861Z,0.00
2019-04-21T03:18:19.557Z,0.00
2019-04-21T03:19:15.626Z,0.00
2019-04-21T03:20:19.361Z,0.00
2019-04-21T03:21:15.450Z,0.00
2019-04-21T03:22:19.994Z,0.00
2019-04-21T03:23:20.947Z,0.00
2019-04-21T03:24:41.298Z,4.00
2019-04-21T03:25:25.352Z,4.00
2019-04-21T03:26:20.412Z,0.00
2019-04-21T03:28:20.176Z,4.00
2019-04-21T03:29:19.820Z,4.00
2019-04-21T03:35:43.831Z,12.00
2019-04-21T03:36:41.465Z,12.00
2019-04-21T03:37:16.920Z,16.00
2019-04-21T03:39:11.363Z,20.00
2019-04-21T03:41:11.535Z,24.00
2019-04-21T03:42:32.826Z,32.00
2019-04-21T03:43:16.720Z,40.00
2019-04-21T03:44:14.688Z,40.00
2019-04-21T03:45:32.683Z,52.00
2019-04-21T03:46:19.473Z,60.00
2019-04-21T03:47:18.811Z,68.00
2019-04-21T03:49:23.150Z,88.00
2019-04-21T03:50:13.417Z,100.00
2019-04-21T03:51:23.109Z,116.00
2019-04-21T03:52:19.427Z,132.00
2019-04-21T03:53:18.556Z,148.00
2019-04-21T03:54:09.274Z,168.00
2019-04-21T03:56:16.118Z,212.00
2019-04-21T03:59:03.944Z,296.00
2019-04-21T04:00:30.469Z,328.00
2019-04-21T04:01:08.015Z,364.00
2019-04-21T04:02:18.576Z,396.00
2019-04-21T04:04:19.612Z,476.00
2019-04-21T04:05:31.323Z,520.00
2019-04-21T04:07:34.066Z,608.00
2019-04-21T04:08:22.783Z,656.00
2019-04-21T04:09:21.238Z,712.00
2019-04-21T04:11:23.440Z,820.00
2019-04-21T04:12:32.837Z,876.00
2019-04-21T04:13:19.348Z,936.00
2019-04-21T04:15:12.223Z,1060.00
2019-04-21T04:18:23.418Z,1244.00
2019-04-21T04:19:18.600Z,1312.00
2019-04-21T04:20:19.204Z,1376.00
2019-04-21T04:22:15.282Z,1508.00
2019-04-21T04:23:10.356Z,1576.00
2019-04-21T04:24:13.702Z,1644.00
2019-04-21T04:25:13.376Z,1712.00
2019-04-21T04:26:14.773Z,1780.00
2019-04-21T04:27:20.272Z,1848.00
2019-04-21T04:28:28.879Z,1916.00
2019-04-21T04:29:12.391Z,1980.00
2019-04-21T04:30:20.009Z,2048.00
2019-04-21T04:31:22.318Z,2116.00
2019-04-21T04:32:04.035Z,2184.00
2019-04-21T04:33:21.044Z,2248.00
2019-04-21T04:34:14.319Z,2316.00
2019-04-21T04:35:14.480Z,2380.00
2019-04-21T04:36:36.006Z,2444.00
2019-04-21T04:37:26.233Z,2508.00
2019-04-21T04:38:13.096Z,2576.00
2019-04-21T04:39:25.620Z,2636.00
2019-04-21T04:40:13.942Z,2704.00
2019-04-21T04:41:14.571Z,2764.00
2019-04-21T04:43:17.536Z,2880.00
2019-04-21T04:44:39.083Z,2944.00
2019-04-21T04:45:15.756Z,3004.00
2019-04-21T04:46:07.173Z,3060.00
2019-04-21T04:47:16.749Z,3116.00
2019-04-21T04:49:23.725Z,3228.00
2019-04-21T04:50:00.723Z,3288.00
2019-04-21T04:51:36.475Z,3340.00
2019-04-21T04:53:15.678Z,3452.00
2019-04-21T04:54:07.193Z,3504.00
2019-04-21T04:55:12.019Z,3560.00
2019-04-21T04:56:10.496Z,3612.00
2019-04-21T04:57:13.859Z,3660.00
2019-04-21T04:58:16.118Z,3712.00
2019-04-21T04:59:33.755Z,3764.00
2019-04-21T05:00:21.383Z,3816.00
2019-04-21T05:02:20.488Z,3920.00
2019-04-21T05:03:19.138Z,3968.00
2019-04-21T05:04:16.035Z,4016.00
2019-04-21T05:05:15.662Z,4060.00
2019-04-21T05:06:28.085Z,4104.00
2019-04-21T05:07:16.929Z,4148.00
2019-04-21T05:08:34.414Z,4192.00
2019-04-21T05:10:11.690Z,4280.00
2019-04-21T05:11:20.864Z,4328.00
2019-04-21T05:12:07.703Z,4380.00
2019-04-21T05:13:11.829Z,4604.00
2019-04-21T05:15:10.067Z,5852.00
2019-04-21T05:16:16.321Z,8036.00
2019-04-21T05:17:14.273Z,9032.00
2019-04-21T05:18:05.389Z,7868.00
2019-04-21T05:19:16.123Z,7000.00
2019-04-21T05:20:17.005Z,7668.00
2019-04-21T05:21:24.388Z,9040.00
2019-04-21T05:22:14.155Z,10348.00
2019-04-21T05:23:02.983Z,10880.00
2019-04-21T05:23:55.913Z,11372.00
2019-04-21T05:24:59.476Z,12020.00
2019-04-21T05:25:53.333Z,11996.00
2019-04-21T05:26:58.370Z,11832.00
2019-04-21T05:27:54.055Z,11532.00
2019-04-21T05:28:53.974Z,11452.00
2019-04-21T05:30:10.233Z,12292.00
2019-04-21T05:31:11.029Z,13364.00
2019-04-21T05:32:00.520Z,13408.00
2019-04-21T05:33:05.626Z,13472.00
2019-04-21T05:34:07.543Z,13972.00
2019-04-21T05:35:01.633Z,14040.00
2019-04-21T05:36:01.863Z,13828.00
2019-04-21T05:37:04.094Z,13984.00
2019-04-21T05:38:03.067Z,15048.00
2019-04-21T05:38:57.087Z,15808.00
2019-04-21T05:39:57.229Z,15264.00
2019-04-21T05:40:52.386Z,14496.00
2019-04-21T05:41:47.455Z,14464.00
2019-04-21T05:42:55.257Z,15200.00
2019-04-21T05:46:04.789Z,18688.00
2019-04-21T05:48:12.244Z,16768.00
2019-04-21T05:49:00.919Z,17376.00
2019-04-21T05:49:55.292Z,17952.00
2019-04-21T05:51:00.184Z,17920.00
2019-04-21T05:51:55.770Z,17600.00
2019-04-21T05:52:57.525Z,17344.00
2019-04-21T05:54:09.275Z,18720.00
2019-04-21T05:55:06.229Z,20896.00
2019-04-21T05:56:08.291Z,21088.00
2019-04-21T05:57:03.331Z,19808.00
2019-04-21T05:58:02.537Z,19616.00
2019-04-21T05:58:58.058Z,20576.00
2019-04-21T06:00:06.279Z,21120.00
2019-04-21T06:02:07.190Z,22240.00
2019-04-21T06:03:03.717Z,23232.00
2019-04-21T06:04:05.526Z,22272.00
2019-04-21T06:05:17.891Z,20544.00
2019-04-21T06:06:10.787Z,21184.00
2019-04-21T06:07:06.038Z,24192.00
2019-04-21T06:08:00.405Z,24800.00
2019-04-21T06:09:05.333Z,22432.00
2019-04-21T06:09:59.593Z,21568.00
2019-04-21T06:11:00.170Z,23488.00
2019-04-21T06:12:03.416Z,25920.00
2019-04-21T06:13:07.114Z,26016.00
2019-04-21T06:14:02.496Z,24032.00
2019-04-21T06:15:08.790Z,23072.00
2019-04-21T06:16:03.559Z,25248.00
2019-04-21T06:17:04.587Z,28672.00
2019-04-21T06:18:05.363Z,31360.00
2019-04-21T06:19:03.328Z,30912.00
2019-04-21T06:20:01.374Z,28096.00
2019-04-21T06:20:59.480Z,25184.00
2019-04-21T06:21:57.453Z,24992.00
2019-04-21T06:23:04.235Z,26272.00
2019-04-21T06:23:59.227Z,29280.00
2019-04-21T06:27:11.603Z,31296.00
2019-04-21T06:28:00.685Z,28416.00
2019-04-21T06:28:56.854Z,27200.00
2019-04-21T06:30:01.884Z,27584.00
2019-04-21T06:31:11.169Z,28000.00
2019-04-21T06:32:20.401Z,29280.00
2019-04-21T06:33:19.643Z,32064.00
2019-04-21T06:34:01.794Z,36192.00
2019-04-21T06:35:23.706Z,36960.00
2019-04-21T06:36:31.908Z,33664.00
2019-04-21T06:37:14.898Z,30752.00
2019-04-21T06:38:10.387Z,31200.00
2019-04-21T06:41:10.371Z,32000.00
2019-04-21T06:41:58.410Z,32800.00
2019-04-21T06:43:10.979Z,34944.00
2019-04-21T06:44:01.480Z,35456.00
2019-04-21T06:46:02.222Z,37760.00
2019-04-21T06:47:02.644Z,38720.00
2019-04-21T06:48:06.320Z,38624.00
2019-04-21T06:50:00.522Z,37248.00
2019-04-21T06:51:04.911Z,37184.00
2019-04-21T06:52:02.405Z,37920.00
2019-04-21T06:53:25.217Z,39136.00
2019-04-21T06:54:04.346Z,39552.00
2019-04-21T06:55:06.453Z,38784.00
2019-04-21T06:56:02.116Z,38944.00
2019-04-21T06:56:58.528Z,41728.00
2019-04-21T06:58:03.747Z,45120.00
2019-04-21T06:59:03.194Z,45568.00
2019-04-21T06:59:58.667Z,42304.00
2019-04-21T07:00:56.177Z,38688.00
2019-04-21T07:02:08.334Z,37440.00
2019-04-21T07:03:11.395Z,39456.00
2019-04-21T07:04:08.451Z,41568.00
2019-04-21T07:05:02.333Z,42208.00
2019-04-21T07:06:03.531Z,43584.00
2019-04-21T07:07:00.517Z,45600.00
2019-04-21T07:08:16.979Z,48320.00
2019-04-21T07:09:10.148Z,49888.00
2019-04-21T07:10:01.491Z,47872.00
2019-04-21T07:11:55.001Z,40928.00
2019-04-21T07:12:59.275Z,41600.00
2019-04-21T07:14:16.205Z,43232.00
2019-04-21T07:14:59.579Z,48448.00
2019-04-21T07:16:07.304Z,52448.00
2019-04-21T07:17:05.069Z,52128.00
2019-04-21T07:18:00.108Z,48832.00
2019-04-21T07:19:09.942Z,45952.00
2019-04-21T07:20:03.190Z,46656.00
2019-04-21T07:21:00.197Z,49600.00
2019-04-21T07:21:57.385Z,52096.00
2019-04-21T07:23:01.762Z,52160.00
2019-04-21T07:25:03.014Z,52256.00
2019-04-21T07:26:01.020Z,54464.00
2019-04-21T07:27:02.608Z,56064.00
2019-04-21T07:27:58.079Z,56192.00
2019-04-21T07:29:01.826Z,54112.00
2019-04-21T07:30:06.628Z,53504.00
2019-04-21T07:31:03.401Z,53824.00
2019-04-21T07:33:07.747Z,53984.00
2019-04-21T07:34:07.745Z,51936.00
2019-04-21T07:35:03.936Z,51808.00
2019-04-21T07:35:59.642Z,52928.00
2019-04-21T07:37:00.985Z,53728.00
2019-04-21T07:37:59.088Z,54912.00
2019-04-21T07:38:57.262Z,56800.00
2019-04-21T07:39:54.997Z,58976.00
2019-04-21T07:40:52.240Z,61024.00
2019-04-21T07:42:53.799Z,61728.00
2019-04-21T07:43:50.989Z,61536.00
2019-04-21T07:44:55.375Z,61088.00
2019-04-21T07:45:52.765Z,60352.00
2019-04-21T07:46:49.082Z,58560.00
2019-04-21T07:47:57.895Z,58432.00
2019-04-21T07:48:58.541Z,61120.00
2019-04-21T07:50:01.031Z,63200.00
2019-04-21T07:51:02.144Z,61952.00
2019-04-21T07:52:08.971Z,57056.00
2019-04-21T07:53:01.019Z,55424.00
2019-04-21T07:54:08.437Z,56224.00
2019-04-21T07:55:07.944Z,59392.00
2019-04-21T07:55:38.035Z,62560.00
2019-04-21T07:56:43.856Z,62464.00
2019-04-21T07:57:52.156Z,59488.00
2019-04-21T07:59:02.814Z,57376.00
2019-04-21T08:00:12.491Z,55616.00
2019-04-21T08:01:55.047Z,62912.00
2019-04-21T08:02:58.173Z,70656.00
2019-04-21T08:04:03.647Z,78528.00
2019-04-21T08:05:02.665Z,80608.00
2019-04-21T08:05:58.620Z,77408.00
2019-04-21T08:06:55.644Z,68960.00
2019-04-21T08:08:01.437Z,64640.00
2019-04-21T08:08:52.954Z,62656.00
2019-04-21T08:09:55.083Z,65472.00
2019-04-21T08:10:50.608Z,69248.00
2019-04-21T08:11:52.320Z,70752.00
2019-04-21T08:12:54.181Z,73632.00
2019-04-21T08:13:57.913Z,75584.00
2019-04-21T08:15:05.881Z,78528.00
2019-04-21T08:15:57.752Z,79200.00
2019-04-21T08:16:57.209Z,76064.00
2019-04-21T08:17:53.366Z,71264.00
2019-04-21T08:19:05.354Z,68192.00
2019-04-21T08:19:53.045Z,68960.00
2019-04-21T08:20:53.403Z,72320.00
2019-04-21T08:21:57.636Z,75456.00
2019-04-21T08:22:59.593Z,76768.00
2019-04-21T08:23:55.688Z,76672.00
2019-04-21T08:24:59.442Z,74112.00
2019-04-21T08:26:07.868Z,69600.00
2019-04-21T08:26:57.407Z,67232.00
2019-04-21T08:29:06.677Z,65568.00
2019-04-21T08:29:59.586Z,67776.00
2019-04-21T08:30:54.267Z,71104.00
2019-04-21T08:32:04.213Z,73248.00
2019-04-21T08:33:09.223Z,75200.00
2019-04-21T08:34:01.696Z,73952.00
2019-04-21T08:35:08.006Z,71168.00
2019-04-21T08:36:11.251Z,68896.00
2019-04-21T08:36:55.323Z,66784.00
2019-04-21T08:37:55.203Z,65312.00
2019-04-21T08:39:03.280Z,64704.00
2019-04-21T08:40:04.465Z,66112.00
2019-04-21T08:40:59.069Z,66240.00
2019-04-21T08:41:58.958Z,64960.00
2019-04-21T08:42:57.118Z,65440.00
2019-04-21T08:43:56.063Z,68256.00
2019-04-21T08:44:52.462Z,71296.00
2019-04-21T08:45:57.192Z,72800.00
2019-04-21T08:47:02.627Z,73568.00
2019-04-21T08:47:58.252Z,73952.00
2019-04-21T08:48:56.613Z,74080.00
2019-04-21T08:49:53.933Z,74496.00
2019-04-21T08:51:05.640Z,74880.00
2019-04-21T08:52:01.732Z,74784.00
2019-04-21T08:52:57.017Z,74432.00
2019-04-21T08:54:55.818Z,76288.00
2019-04-21T08:56:05.768Z,75488.00
2019-04-21T08:56:57.445Z,72768.00
2019-04-21T08:58:58.519Z,67968.00
2019-04-21T08:59:58.644Z,68352.00
2019-04-21T09:01:04.075Z,69088.00
2019-04-21T09:01:55.562Z,74816.00
2019-04-21T09:02:58.970Z,69056.00
2019-04-21T09:03:56.559Z,72992.00
2019-04-21T09:04:54.144Z,72832.00
2019-04-21T09:05:59.681Z,73472.00
2019-04-21T09:08:00.338Z,69856.00
2019-04-21T09:08:58.652Z,65472.00
2019-04-21T09:09:56.123Z,61920.00
2019-04-21T09:10:55.959Z,60544.00
2019-04-21T09:11:54.129Z,60416.00
2019-04-21T09:12:52.247Z,62240.00
2019-04-21T09:13:54.853Z,64416.00
2019-04-21T09:14:55.316Z,66144.00
2019-04-21T09:16:54.458Z,63360.00
2019-04-21T09:17:47.367Z,60768.00
2019-04-21T09:18:48.709Z,58784.00
2019-04-21T09:20:00.668Z,57856.00
2019-04-21T09:20:58.027Z,60000.00
2019-04-21T09:21:54.934Z,62272.00
2019-04-21T09:22:55.712Z,63488.00
2019-04-21T09:23:54.078Z,63904.00
2019-04-21T09:24:52.545Z,65344.00
2019-04-21T09:25:57.594Z,67488.00
2019-04-21T09:26:51.379Z,69344.00
2019-04-21T09:27:46.785Z,70784.00
2019-04-21T09:28:47.984Z,70848.00
2019-04-21T09:29:40.623Z,72064.00
2019-04-21T09:30:43.934Z,73440.00
2019-04-21T09:31:39.980Z,75360.00
2019-04-21T09:32:36.670Z,75008.00
2019-04-21T09:33:41.262Z,72608.00
2019-04-21T09:34:40.417Z,70880.00
2019-04-21T09:35:35.894Z,71456.00
2019-04-21T09:36:42.745Z,72256.00
2019-04-21T09:37:44.404Z,74560.00
2019-04-21T09:38:38.199Z,78496.00
2019-04-21T09:39:41.882Z,81536.00
2019-04-21T09:40:40.113Z,82400.00
2019-04-21T09:41:38.214Z,83808.00
2019-04-21T09:42:43.014Z,82656.00
2019-04-21T09:43:43.083Z,80096.00
2019-04-21T09:44:38.615Z,77792.00
2019-04-21T09:45:35.597Z,76448.00
2019-04-21T09:46:41.855Z,74432.00
2019-04-21T09:47:42.278Z,72128.00
2019-04-21T09:48:49.146Z,72096.00
2019-04-21T09:49:37.202Z,75488.00
2019-04-21T09:50:36.269Z,79296.00
2019-04-21T09:51:34.723Z,79264.00
2019-04-21T09:52:41.737Z,79840.00
2019-04-21T09:53:38.145Z,78816.00
2019-04-21T09:54:45.253Z,80000.00
2019-04-21T09:55:42.986Z,82368.00
2019-04-21T09:56:45.465Z,86240.00
2019-04-21T09:57:41.661Z,87680.00
2019-04-21T09:58:40.329Z,85856.00
2019-04-21T09:59:38.667Z,83488.00
2019-04-21T10:00:46.348Z,78624.00
2019-04-21T10:01:49.073Z,75776.00
2019-04-21T10:02:42.754Z,75840.00
2019-04-21T10:03:42.812Z,80128.00
2019-04-21T10:04:35.668Z,88416.00
2019-04-21T10:05:34.523Z,97856.00
2019-04-21T10:06:35.005Z,101984.00
2019-04-21T10:07:38.481Z,101952.00
2019-04-21T10:08:34.496Z,98272.00
2019-04-21T10:09:35.569Z,91936.00
2019-04-21T10:10:34.449Z,86592.00
2019-04-21T10:11:35.534Z,85888.00
2019-04-21T10:12:35.077Z,85888.00
2019-04-21T10:13:34.407Z,86176.00
2019-04-21T10:14:34.394Z,87360.00
2019-04-21T10:15:35.526Z,87712.00
2019-04-21T10:16:34.395Z,89312.00
2019-04-21T10:17:35.043Z,89696.00
2019-04-21T10:18:35.753Z,89536.00
2019-04-21T10:19:34.319Z,90528.00
2019-04-21T10:20:34.305Z,90432.00
2019-04-21T10:21:34.293Z,90432.00
2019-04-21T10:22:35.070Z,87744.00
2019-04-21T10:23:34.261Z,87104.00
2019-04-21T10:24:34.247Z,86784.00
2019-04-21T10:25:34.564Z,88128.00
2019-04-21T10:26:35.454Z,86080.00
2019-04-21T10:27:34.881Z,85984.00
2019-04-21T10:28:35.131Z,84000.00
2019-04-21T10:29:35.822Z,82208.00
2019-04-21T10:30:34.770Z,82624.00
2019-04-21T10:31:34.646Z,82624.00
2019-04-21T10:32:34.517Z,85440.00
2019-04-21T10:33:34.514Z,85632.00
2019-04-21T10:34:34.838Z,84288.00
2019-04-21T10:35:35.224Z,82848.00
2019-04-21T10:36:35.128Z,83200.00
2019-04-21T10:37:45.601Z,83328.00
2019-04-21T10:38:40.527Z,86208.00
2019-04-21T10:39:34.031Z,86080.00
2019-04-21T10:40:36.861Z,85248.00
2019-04-21T10:41:35.146Z,83168.00
2019-04-21T10:42:35.367Z,79328.00
2019-04-21T10:43:35.472Z,77376.00
2019-04-21T10:44:34.709Z,76512.00
2019-04-21T10:45:34.911Z,78784.00
2019-04-21T10:46:35.007Z,83776.00
2019-04-21T10:47:34.606Z,88416.00
2019-04-21T10:48:35.053Z,91104.00
2019-04-21T10:49:34.897Z,90080.00
2019-04-21T10:50:34.765Z,87680.00
2019-04-21T10:51:35.007Z,83232.00
2019-04-21T10:52:34.769Z,82208.00
2019-04-21T10:53:34.568Z,83264.00
2019-04-21T10:54:57.278Z,87520.00
2019-04-21T10:55:53.514Z,90976.00
2019-04-21T10:56:38.782Z,91008.00
2019-04-21T10:57:34.897Z,87392.00
2019-04-21T10:58:34.178Z,84096.00
2019-04-21T10:59:33.737Z,79456.00
2019-04-21T11:00:34.323Z,76896.00
2019-04-21T11:01:34.748Z,76416.00
2019-04-21T11:02:34.797Z,79776.00
2019-04-21T11:03:35.132Z,82464.00
2019-04-21T11:04:37.333Z,85312.00
2019-04-21T11:05:34.493Z,89824.00
2019-04-21T11:06:34.748Z,92800.00
2019-04-21T11:07:40.255Z,91840.00
2019-04-21T11:08:37.956Z,88608.00
2019-04-21T11:09:33.942Z,85536.00
2019-04-21T11:10:34.055Z,84640.00
2019-04-21T11:11:34.143Z,85472.00
2019-04-21T11:12:33.544Z,89408.00
2019-04-21T11:13:34.769Z,90464.00
2019-04-21T11:14:33.532Z,88096.00
2019-04-21T11:15:33.500Z,86432.00
2019-04-21T11:16:33.485Z,83616.00
2019-04-21T11:17:34.185Z,84544.00
2019-04-21T11:18:33.976Z,87168.00
2019-04-21T11:19:34.772Z,90880.00
2019-04-21T11:20:33.425Z,92064.00
2019-04-21T11:21:34.523Z,90208.00
2019-04-21T11:22:34.025Z,85888.00
2019-04-21T11:23:33.387Z,81760.00
2019-04-21T11:24:33.440Z,79520.00
2019-04-21T11:25:33.751Z,78944.00
2019-04-21T11:26:33.789Z,79840.00
2019-04-21T11:27:33.319Z,82400.00
2019-04-21T11:28:34.504Z,87296.00
2019-04-21T11:29:33.290Z,89536.00
2019-04-21T11:30:33.697Z,88672.00
2019-04-21T11:31:33.459Z,87424.00
2019-04-21T11:32:33.247Z,85152.00
2019-04-21T11:33:33.440Z,83712.00
2019-04-21T11:34:33.489Z,86112.00
2019-04-21T11:35:33.198Z,87520.00
2019-04-21T11:36:33.260Z,87104.00
2019-04-21T11:37:34.495Z,84064.00
2019-04-21T11:38:35.235Z,83104.00
2019-04-21T11:39:42.144Z,86144.00
2019-04-21T11:40:34.044Z,90112.00
2019-04-21T11:41:34.016Z,93280.00
2019-04-21T11:42:33.563Z,95200.00
2019-04-21T11:43:33.078Z,93824.00
2019-04-21T11:44:33.183Z,91840.00
2019-04-21T11:45:34.532Z,89088.00
2019-04-21T11:46:34.234Z,88864.00
2019-04-21T11:47:34.199Z,88640.00
2019-04-21T11:48:34.424Z,87616.00
2019-04-21T11:49:32.989Z,85056.00
2019-04-21T11:50:32.973Z,84256.00
2019-04-21T11:51:33.325Z,84704.00
2019-04-21T11:52:32.945Z,85504.00
2019-04-21T11:53:33.004Z,90112.00
2019-04-21T11:54:32.961Z,91840.00
2019-04-21T11:55:36.787Z,91936.00
2019-04-21T11:56:32.882Z,92576.00
2019-04-21T11:57:38.357Z,94048.00
2019-04-21T11:58:33.749Z,93312.00
2019-04-21T11:59:33.445Z,91104.00
2019-04-21T12:00:33.590Z,90272.00
2019-04-21T12:01:33.786Z,90048.00
2019-04-21T12:02:33.220Z,90464.00
2019-04-21T12:03:33.656Z,91104.00
2019-04-21T12:04:33.680Z,93376.00
2019-04-21T12:05:33.059Z,94496.00
2019-04-21T12:06:40.884Z,92512.00
2019-04-21T12:07:33.411Z,88224.00
2019-04-21T12:08:39.318Z,84576.00
2019-04-21T12:09:33.306Z,82112.00
2019-04-21T12:10:33.374Z,82400.00
2019-04-21T12:11:33.694Z,84480.00
2019-04-21T12:12:32.983Z,85312.00
2019-04-21T12:13:32.628Z,84960.00
2019-04-21T12:14:32.613Z,79936.00
2019-04-21T12:15:32.598Z,76800.00
2019-04-21T12:16:33.133Z,74784.00
2019-04-21T12:17:32.570Z,75392.00
2019-04-21T12:18:33.998Z,74592.00
2019-04-21T12:19:32.668Z,74624.00
2019-04-21T12:20:33.442Z,73472.00
2019-04-21T12:21:46.598Z,61920.00
2019-04-21T12:22:34.086Z,67456.00
2019-04-21T12:23:32.539Z,67648.00
2019-04-21T12:24:33.388Z,70720.00
2019-04-21T12:25:33.342Z,70816.00
2019-04-21T12:26:33.768Z,69248.00
2019-04-21T12:27:32.420Z,67584.00
2019-04-21T12:28:32.460Z,63872.00
2019-04-21T12:29:33.581Z,60448.00
2019-04-21T12:30:33.549Z,59712.00
2019-04-21T12:31:33.650Z,62048.00
2019-04-21T12:32:32.346Z,65184.00
2019-04-21T12:33:32.330Z,66240.00
2019-04-21T12:34:32.341Z,67136.00
2019-04-21T12:35:33.461Z,61888.00
2019-04-21T12:36:33.716Z,70240.00
2019-04-21T12:37:33.037Z,66912.00
2019-04-21T12:38:42.557Z,59136.00
2019-04-21T12:39:32.723Z,60320.00
2019-04-21T12:40:32.595Z,60992.00
2019-04-21T12:41:32.871Z,62464.00
2019-04-21T12:42:32.447Z,61984.00
2019-04-21T12:43:32.796Z,63040.00
2019-04-21T12:44:32.169Z,64224.00
2019-04-21T12:45:32.152Z,66464.00
2019-04-21T12:46:32.136Z,68416.00
2019-04-21T12:47:32.258Z,65376.00
2019-04-21T12:48:32.107Z,65408.00
2019-04-21T12:49:32.094Z,59776.00
2019-04-21T12:50:32.158Z,53632.00
2019-04-21T12:51:33.383Z,53312.00
2019-04-21T12:52:32.148Z,55040.00
2019-04-21T12:53:32.034Z,59904.00
2019-04-21T12:54:33.127Z,67040.00
2019-04-21T12:55:38.416Z,69824.00
2019-04-21T12:56:31.988Z,68256.00
2019-04-21T12:57:33.240Z,59040.00
2019-04-21T12:58:33.111Z,56544.00
2019-04-21T12:59:32.881Z,53952.00
2019-04-21T13:00:33.252Z,55936.00
2019-04-21T13:01:32.775Z,61440.00
2019-04-21T13:02:31.899Z,67840.00
2019-04-21T13:03:32.217Z,73568.00
2019-04-21T13:04:31.869Z,76000.00
2019-04-21T13:05:31.854Z,72128.00
2019-04-21T13:06:31.913Z,65152.00
2019-04-21T13:07:33.148Z,57632.00
2019-04-21T13:08:41.526Z,55872.00
2019-04-21T13:09:32.517Z,57184.00
2019-04-21T13:10:31.778Z,59776.00
2019-04-21T13:11:33.062Z,60864.00